LFMU

Details ICAO LFMU (BZR)
Name Beziers Vias
Region France
Timezone Europe/Paris (UTC+2.0)
Plans Departing 106
Arriving 158
Stats Elevation 54 ft / 16 m (AMSL)
Location 43.323300° 3.354690°
Runways 1
Magnetic Variation 1.199° E
Sunrise 2018-10-21 06:08:33 UTC / 2018-10-21 08:08:33 Local
Sunset 2018-10-21 16:56:12 UTC / 2018-10-21 18:56:12 Local
Advertisement - Login to hide

Runways

ID Width Length Bearing (true/mag) Surface Threshold Overrun Markings Lighting
09 148 ft / 45 m 6,568 ft / 2,002 m 94.39° / 93.19° ASPHALT 0 ft / 0 m 154 ft / 47 m PREC-APP EDGE THRESHOLD REIL-OMNI
27 148 ft / 45 m 6,568 ft / 2,002 m 274.41° / 273.21° ASPHALT 0 ft / 0 m 151 ft / 46 m PREC-APP EDGE THRESHOLD REIL-OMNI

Approach Navaids

Runway Type Ident Frequency Range Bearing (true/mag) Slope Elevation
09 DME ZR 109.35 MHz 18 nm / 33 km - - 92 ft / 28 m (AMSL)

Map

Weather


0- 5 10 15 20 25 30 35+ Temperature / °C

Clouds and Precipitation
Forecast for 2018-10-21 12:00 UTC. Updated 4 hours ago

Ground ~20,000 ft ~40,000 ft Winds

METAR

LFMU 211330Z AUTO 26009KT 230V290 CAVOK 24/14 Q1018 NOSIG

TAF

TAF LFMU 210800Z 2109/2209 32005KT 8000 NSC BECMG 2109/2111 28010KT CAVOK BECMG 2201/2203 VRB02KT BKN040

Frequencies

Approach 120.17 MHz Beziers Approach
Tower 120.17 MHz tower
Recorded 127.52 MHz Beziers Atis
Warning: Do not use this data for real-world aviation or navigation. No guarantee of current accuracy is given.